Fesco Vladimir — 5BSL2 — position and weather

sailwx.info

Track history (hours):
 
Tides and Currents Weather Stations Pressure Air Temp Water Temp Dewpoint Dewpoint Depression Visibility Wind Speed Wind Dir Waves Ship Positions

Fesco Vladimir

Last reported at 2017-Sep-21 14:00 UTC. Time now 2017-Sep-21 14:06 UTC.
Position N 59°40' E 028°24'.

Length 184 m; draft 8.8 m.

Type: Ship (hazmat cat A). MMSI: 209777000.

Date/timePositionNaut miles runAvg speedWind from/ knotsBaromVisibWave heightAir tempDewpointWater temp
2017-Sep-21 14:00N 59°40' E 028°24'0 0.0
2017-Sep-21 13:30N 59°40' E 028°24'0 0.0
2017-Sep-21 13:00N 59°40' E 028°24'0 0.0
2017-Sep-21 12:30N 59°40' E 028°24'0 0.0
2017-Sep-21 12:00N 59°40' E 028°24'0 0.0
2017-Sep-21 11:30N 59°40' E 028°24'0 0.0
2017-Sep-21 11:00N 59°40' E 028°24'0 0.0
2017-Sep-21 10:30N 59°40' E 028°24'0 0.0
2017-Sep-21 10:00N 59°40' E 028°24'0 0.0
2017-Sep-21 09:30N 59°40' E 028°24'0 0.0
2017-Sep-21 09:00N 59°40' E 028°24'0 0.0
2017-Sep-21 08:30N 59°40' E 028°24'0 0.3
2017-Sep-21 08:00N 59°41' E 028°24'2 5.0
2017-Sep-21 07:30N 59°43' E 028°23'4 8.9
2017-Sep-21 07:00N 59°47' E 028°25'3 6.0
2017-Sep-21 06:31N 59°50' E 028°26'714.8
2017-Sep-21 06:00N 59°57' E 028°34'4 7.8
2017-Sep-21 05:30N 60°00' E 028°35'3 6.1
2017-Sep-21 05:00N 60°02' E 028°31'611.7
2017-Sep-21 04:30N 60°05' E 028°20'611.7
2017-Sep-21 04:00N 60°08' E 028°10'612.2
2017-Sep-21 03:30N 60°09' E 027°58'611.9
2017-Sep-21 03:00N 60°11' E 027°46'612.6
2017-Sep-21 02:30N 60°07' E 027°35'612.5
2017-Sep-21 02:00N 60°04' E 027°25'612.5
2017-Sep-21 01:30N 60°01' E 027°14'612.5
2017-Sep-21 01:00N 59°58' E 027°03'612.3
2017-Sep-21 00:30N 59°59' E 026°51'612.2
2017-Sep-21 00:00N 59°59' E 026°39'612.7
2017-Sep-20 23:30N 59°58' E 026°26'612.8
2017-Sep-20 23:00N 59°56' E 026°14'3812.7
2017-Sep-20 19:59N 59°47' E 024°60'612.6
2017-Sep-20 19:30N 59°45' E 024°48'612.5
2017-Sep-20 19:00N 59°44' E 024°36'612.3
2017-Sep-20 18:30N 59°43' E 024°24'1212.5
2017-Sep-20 17:35N 59°39' E 024°02'116.0
2017-Sep-20 17:30N 59°39' E 024°00'815.9
2017-Sep-20 17:00N 59°36' E 023°45'1216.3
2017-Sep-20 16:15N 59°33' E 023°22'416.6
2017-Sep-20 16:00N 59°31' E 023°15'27016.0
2017-Sep-19 23:11N 56°18' E 017°20'2516.5
2017-Sep-19 21:40N 56°03' E 016°44'316.3
2017-Sep-19 21:30N 56°01' E 016°40'816.3
2017-Sep-19 21:00N 55°57' E 016°28'816.3
2017-Sep-19 20:30N 55°53' E 016°15'816.5
2017-Sep-19 20:00N 55°49' E 016°02'816.3
2017-Sep-19 19:30N 55°45' E 015°49'816.4
2017-Sep-19 19:00N 55°42' E 015°36'816.4
2017-Sep-19 18:30N 55°37' E 015°24'816.4
2017-Sep-19 18:00N 55°34' E 015°11'816.4
2017-Sep-19 17:30N 55°30' E 014°58'816.3
2017-Sep-19 17:00N 55°26' E 014°46'815.9
2017-Sep-19 16:30N 55°21' E 014°35'816.3
2017-Sep-19 16:00N 55°14' E 014°26'816.3
2017-Sep-19 15:30N 55°08' E 014°17'816.2
2017-Sep-19 15:00N 55°01' E 014°09'916.2
2017-Sep-19 14:28N 54°58' E 013°54'916.7
2017-Sep-19 13:57N 54°56' E 013°40'2316.5
2017-Sep-19 12:32N 54°49' E 013°02'016.7
2017-Sep-19 12:30N 54°48' E 013°01'2416.1
2017-Sep-19 11:02N 54°38' E 012°24'016.3
2017-Sep-19 11:00N 54°38' E 012°23'815.0
2017-Sep-19 10:30N 54°32' E 012°15'2013.5
2017-Sep-19 09:03N 54°26' E 011°43'116.2
2017-Sep-19 08:58N 54°26' E 011°41'816.3
2017-Sep-19 08:30N 54°29' E 011°30'816.0
2017-Sep-19 08:00N 54°33' E 011°17'815.4
2017-Sep-19 07:30N 54°35' E 011°05'815.8
2017-Sep-19 07:00N 54°35' E 010°51'816.4
2017-Sep-19 06:30N 54°34' E 010°37'816.2
2017-Sep-19 06:00N 54°31' E 010°24'713.3
2017-Sep-19 05:29N 54°27' E 010°15'611.6
2017-Sep-19 04:59N 54°22' E 010°09'22 4.2
2017-Sep-18 23:39N 54°13' E 009°35'3 6.6
2017-Sep-18 23:16N 54°11' E 009°31'2 6.6
2017-Sep-18 22:56N 54°11' E 009°27'3 6.6
2017-Sep-18 22:28N 54°09' E 009°23'4 6.2
2017-Sep-18 21:49N 54°06' E 009°20'2 6.6
2017-Sep-18 21:30N 54°04' E 009°19'3 6.6
2017-Sep-18 21:00N 54°00' E 009°18'3 6.6
2017-Sep-18 20:31N 53°58' E 009°15'3 5.0
2017-Sep-18 20:00N 53°56' E 009°12'2 4.4
2017-Sep-18 19:30N 53°54' E 009°10'1 1.4
2017-Sep-18 19:00N 53°54' E 009°09'0 0.0
2017-Sep-18 18:30N 53°54' E 009°09'1 2.9
2017-Sep-18 18:00N 53°53' E 009°07'0 0.0
2017-Sep-18 17:30N 53°53' E 009°07'0 0.2
2017-Sep-18 17:00N 53°53' E 009°06'1 1.7
2017-Sep-18 16:30N 53°53' E 009°08'5 9.3
2017-Sep-18 16:00N 53°52' E 009°16'612.8
2017-Sep-18 15:30N 53°48' E 009°23'817.0
2017-Sep-18 15:00N 53°41' E 009°30'713.4
2017-Sep-18 14:30N 53°35' E 009°37'611.1
2017-Sep-18 14:00N 53°34' E 009°46'5 9.4
2017-Sep-18 13:30N 53°33' E 009°54'1 2.4
2017-Sep-18 13:00N 53°32' E 009°55'0 0.0
2017-Sep-18 12:30N 53°32' E 009°55'0 0.0
2017-Sep-18 12:00N 53°32' E 009°55'0 0.0
2017-Sep-18 11:30N 53°32' E 009°55'0 0.0
2017-Sep-18 11:00N 53°32' E 009°55'0 0.0
2017-Sep-18 10:30N 53°32' E 009°55'0 0.0
2017-Sep-18 10:00N 53°32' E 009°55'0 0.0
2017-Sep-18 09:30N 53°32' E 009°55'0 0.0
2017-Sep-18 09:00N 53°32' E 009°55'0 0.0
2017-Sep-18 08:30N 53°32' E 009°55'0 0.0
2017-Sep-18 08:00N 53°32' E 009°55'0 0.0
2017-Sep-18 07:30N 53°32' E 009°55'0 0.0
2017-Sep-18 07:00N 53°32' E 009°55'0 0.0
2017-Sep-18 06:30N 53°32' E 009°55'0 0.0
2017-Sep-18 05:57N 53°32' E 009°55'0 0.0
2017-Sep-18 05:30N 53°32' E 009°55'0 0.0
2017-Sep-18 05:00N 53°32' E 009°55'0 0.0
2017-Sep-18 04:30N 53°32' E 009°55'0 0.0
2017-Sep-18 03:57N 53°32' E 009°55'0 0.0
2017-Sep-18 03:30N 53°32' E 009°55'0 0.0
2017-Sep-18 03:00N 53°32' E 009°55'0 0.0
2017-Sep-18 02:27N 53°32' E 009°55'0 0.0
2017-Sep-18 01:57N 53°32' E 009°55'0 0.0
2017-Sep-18 01:30N 53°32' E 009°55'0 0.0
2017-Sep-18 01:00N 53°32' E 009°55'0 0.0
2017-Sep-18 00:30N 53°32' E 009°55'0 0.0
2017-Sep-18 00:00N 53°32' E 009°55'0 0.0
2017-Sep-17 23:30N 53°32' E 009°55'0 0.0
2017-Sep-17 23:00N 53°32' E 009°55'0 0.0
2017-Sep-17 22:30N 53°32' E 009°55'0 0.0
2017-Sep-17 21:57N 53°32' E 009°55'0 0.0
2017-Sep-17 21:30N 53°32' E 009°55'0 0.0
2017-Sep-17 20:59N 53°32' E 009°55'0 0.0
2017-Sep-17 20:30N 53°32' E 009°55'0 0.0
2017-Sep-17 19:59N 53°32' E 009°55'0 0.0
2017-Sep-17 19:29N 53°32' E 009°55'0 0.0
2017-Sep-17 19:01N 53°32' E 009°55'0 0.0
2017-Sep-17 18:28N 53°32' E 009°55'0 0.0
2017-Sep-17 17:58N 53°32' E 009°55'0 0.0
2017-Sep-17 17:30N 53°32' E 009°55'0 0.0
2017-Sep-17 17:00N 53°32' E 009°55'0 0.0
2017-Sep-17 16:29N 53°32' E 009°55'0 0.0
2017-Sep-17 15:59N 53°32' E 009°55'0 0.0
2017-Sep-17 15:29N 53°32' E 009°55'0 0.0
2017-Sep-17 14:59N 53°32' E 009°55'0 0.0
2017-Sep-17 14:29N 53°32' E 009°55'0 0.0
2017-Sep-17 13:59N 53°32' E 009°55'0 0.0
2017-Sep-17 13:29N 53°32' E 009°55'0 0.0
2017-Sep-17 12:59N 53°32' E 009°55'0 0.0
2017-Sep-17 12:29N 53°32' E 009°55'0 0.0
2017-Sep-17 12:00N 53°32' E 009°55'0 0.0
2017-Sep-17 11:30N 53°32' E 009°55'0 0.0
2017-Sep-17 11:00N 53°32' E 009°55'0 0.0
2017-Sep-17 10:30N 53°32' E 009°55'0 0.0
2017-Sep-17 10:00N 53°32' E 009°55'0 0.0
2017-Sep-17 09:30N 53°32' E 009°55'0 0.0
2017-Sep-17 09:00N 53°32' E 009°55'0 0.0
2017-Sep-17 08:30N 53°32' E 009°55'0 0.0
2017-Sep-17 08:00N 53°32' E 009°55'0 0.0
2017-Sep-17 07:30N 53°32' E 009°55'0 0.0
2017-Sep-17 07:00N 53°32' E 009°55'0 0.0
2017-Sep-17 06:30N 53°32' E 009°55'0 0.0
2017-Sep-17 06:00N 53°32' E 009°55'0 0.0
2017-Sep-17 05:30N 53°32' E 009°55'0 0.0
2017-Sep-17 05:00N 53°32' E 009°55'0 0.0
2017-Sep-17 04:30N 53°32' E 009°55'1 1.9
2017-Sep-17 04:01N 53°33' E 009°54'2 3.8
2017-Sep-17 03:30N 53°31' E 009°56'1 2.1
2017-Sep-17 02:59N 53°30' E 009°56'0 0.0
2017-Sep-17 02:29N 53°30' E 009°56'0 0.0
2017-Sep-17 01:59N 53°30' E 009°56'0 0.0
2017-Sep-17 01:29N 53°30' E 009°56'0 0.0
2017-Sep-17 00:59N 53°30' E 009°56'0 0.0
2017-Sep-17 00:29N 53°30' E 009°56'0 0.0
2017-Sep-16 23:59N 53°30' E 009°56'0 0.0
2017-Sep-16 23:29N 53°30' E 009°56'0 0.0
2017-Sep-16 22:59N 53°30' E 009°56'0 0.0
2017-Sep-16 22:29N 53°30' E 009°56'0 0.0
2017-Sep-16 21:59N 53°30' E 009°56'0 0.0
2017-Sep-16 21:29N 53°30' E 009°56'0 0.0
2017-Sep-16 20:59N 53°30' E 009°56'0 0.0
2017-Sep-16 20:26N 53°30' E 009°56'0 0.0
2017-Sep-16 19:59N 53°30' E 009°56'0 0.0
2017-Sep-16 19:29N 53°30' E 009°56'0 0.0
2017-Sep-16 18:59N 53°30' E 009°56'0 0.0
2017-Sep-16 18:29N 53°30' E 009°56'0 0.0
2017-Sep-16 18:00N 53°30' E 009°56'0 0.0
2017-Sep-16 17:31N 53°30' E 009°56'1 2.9
2017-Sep-16 17:00N 53°31' E 009°56'1 1.7
2017-Sep-16 16:30N 53°32' E 009°57'0 0.0
2017-Sep-16 15:58N 53°32' E 009°57'0 0.0
2017-Sep-16 15:28N 53°32' E 009°57'0 0.0
2017-Sep-16 14:58N 53°32' E 009°57'0 0.0
2017-Sep-16 14:28N 53°32' E 009°57'0 0.0
2017-Sep-16 13:58N 53°32' E 009°57'0 0.0
2017-Sep-16 13:28N 53°32' E 009°57'0 0.0
2017-Sep-16 12:58N 53°32' E 009°57'0 0.0
2017-Sep-16 12:28N 53°32' E 009°57'0 0.0
2017-Sep-16 11:58N 53°32' E 009°57'0 0.0
2017-Sep-16 11:30N 53°32' E 009°57'2 4.3
2017-Sep-16 11:00N 53°32' E 009°53'5 9.5
2017-Sep-16 10:30N 53°34' E 009°46'713.2
2017-Sep-16 10:00N 53°36' E 009°35'713.9
2017-Sep-16 09:31N 53°42' E 009°29'816.6
2017-Sep-16 09:00N 53°49' E 009°22'816.5
2017-Sep-16 08:30N 53°53' E 009°09'713.7
2017-Sep-16 08:00N 53°51' E 008°58'816.6
2017-Sep-16 07:31N 53°52' E 008°44'816.5
2017-Sep-16 07:00N 53°58' E 008°34'917.3
2017-Sep-16 06:30N 53°59' E 008°20'813.3
2017-Sep-16 05:54N 53°59' E 008°06'4 0.3
2017-Sep-15 18:09N 54°03' E 008°08'0 0.9
2017-Sep-15 17:42N 54°02' E 008°08'5 6.5
2017-Sep-15 16:57N 53°59' E 008°02'612.0
2017-Sep-15 16:29N 53°54' E 007°56'5 9.2
2017-Sep-15 15:55N 53°49' E 007°56'511.9
2017-Sep-15 15:28N 53°46' E 008°03'613.7
2017-Sep-15 15:00N 53°40' E 008°07'5 9.4
2017-Sep-15 14:30N 53°35' E 008°09'0 0.1
2017-Sep-15 13:59N 53°35' E 008°09'0 0.0
2017-Sep-15 13:29N 53°35' E 008°09'0 0.0
2017-Sep-15 12:59N 53°35' E 008°09'0 0.0
2017-Sep-15 12:29N 53°35' E 008°09'0 0.0
2017-Sep-15 11:53N 53°35' E 008°09'0 0.0
2017-Sep-15 11:26N 53°35' E 008°09'0 0.0
2017-Sep-15 10:59N 53°35' E 008°09'0 0.0
2017-Sep-15 10:29N 53°35' E 008°09'0 0.0
2017-Sep-15 09:59N 53°35' E 008°09'0 0.0
2017-Sep-15 09:29N 53°35' E 008°09'0 0.0
2017-Sep-15 08:59N 53°35' E 008°09'0 0.0
2017-Sep-15 08:29N 53°35' E 008°09'0 0.0
2017-Sep-15 07:59N 53°35' E 008°09'0 0.0
2017-Sep-15 07:26N 53°35' E 008°09'0 0.0
2017-Sep-15 06:59N 53°35' E 008°09'0 0.0
2017-Sep-15 06:29N 53°35' E 008°09'0 0.0
2017-Sep-15 05:59N 53°35' E 008°09'0 0.0
2017-Sep-15 05:29N 53°35' E 008°09'0 0.1
2017-Sep-15 05:00N 53°35' E 008°09'3 5.3
2017-Sep-15 04:30N 53°38' E 008°08'612.9
2017-Sep-15 04:00N 53°44' E 008°04'815.5
2017-Sep-15 03:30N 53°49' E 007°55'713.9
2017-Sep-15 03:00N 53°56' E 007°54'714.5
2017-Sep-15 02:30N 54°01' E 008°03'612.7
2017-Sep-15 02:00N 54°01' E 008°14'611.4
2017-Sep-15 01:30N 53°59' E 008°24'816.0
2017-Sep-15 01:00N 53°57' E 008°37'816.1
2017-Sep-15 00:31N 53°51' E 008°45'816.8
2017-Sep-15 00:01N 53°51' E 008°60'611.8
2017-Sep-14 23:30N 53°54' E 009°09'0 0.1
2017-Sep-14 23:00N 53°54' E 009°09'1 2.4
2017-Sep-14 22:31N 53°54' E 009°10'3 6.4
2017-Sep-14 22:01N 53°57' E 009°14'3 7.0
2017-Sep-14 21:30N 53°60' E 009°17'3 5.8
2017-Sep-14 21:00N 54°03' E 009°18'2 4.1
2017-Sep-14 20:31N 54°05' E 009°19'4 6.9
2017-Sep-14 19:59N 54°08' E 009°20'1 2.7
2017-Sep-14 19:30N 54°09' E 009°22'2 4.1
2017-Sep-14 18:57N 54°10' E 009°25'4 7.0
2017-Sep-14 18:25N 54°11' E 009°31'33 3.7
2017-Sep-14 09:28N 54°30' E 010°17'612.8
2017-Sep-14 09:00N 54°32' E 010°26'815.7
2017-Sep-14 08:30N 54°35' E 010°39'815.7
2017-Sep-14 08:00N 54°36' E 010°53'714.4
2017-Sep-14 07:30N 54°36' E 011°05'714.3
2017-Sep-14 07:00N 54°35' E 011°17'713.5
2017-Sep-14 06:30N 54°32' E 011°28'713.2
2017-Sep-14 06:01N 54°29' E 011°38'612.7
2017-Sep-14 05:30N 54°26' E 011°48'612.1
2017-Sep-14 05:00N 54°26' E 011°58'611.1
2017-Sep-14 04:30N 54°26' E 012°08'910.4
2017-Sep-14 03:40N 54°34' E 012°15'211.3
2017-Sep-14 03:29N 54°35' E 012°16'44 9.8
2017-Sep-13 22:59N 54°55' E 013°25'5 7.9
2017-Sep-13 22:20N 54°57' E 013°33'23 7.3
2017-Sep-13 19:06N 55°08' E 014°10'2 7.5
2017-Sep-13 18:50N 55°09' E 014°12'3 8.2
2017-Sep-13 18:30N 55°11' E 014°15'5 9.7
2017-Sep-13 18:00N 55°15' E 014°20'510.9
2017-Sep-13 17:30N 55°19' E 014°26'712.2
2017-Sep-13 16:57N 55°25' E 014°34'511.7
2017-Sep-13 16:30N 55°28' E 014°41'611.9
2017-Sep-13 16:00N 55°31' E 014°50'612.2
2017-Sep-13 15:30N 55°34' E 014°59'612.1
2017-Sep-13 15:00N 55°37' E 015°08'612.0
2017-Sep-13 14:30N 55°40' E 015°18'612.1
2017-Sep-13 14:00N 55°43' E 015°27'612.2
2017-Sep-13 13:30N 55°46' E 015°36'612.8
2017-Sep-13 13:00N 55°50' E 015°46'613.1
2017-Sep-13 12:31N 55°53' E 015°56'612.8
2017-Sep-13 12:00N 55°57' E 016°05'612.7
2017-Sep-13 11:30N 55°60' E 016°15'612.8
2017-Sep-13 11:00N 56°03' E 016°25'612.0
2017-Sep-13 10:30N 56°06' E 016°34'612.1
2017-Sep-13 10:00N 56°10' E 016°43'612.2
2017-Sep-13 09:30N 56°14' E 016°52'612.3
2017-Sep-13 09:00N 56°17' E 017°00'25412.9
2017-Sep-12 13:15N 59°25' E 022°22'415.4
2017-Sep-12 13:00N 59°28' E 022°28'815.2
2017-Sep-12 12:30N 59°31' E 022°41'815.7
2017-Sep-12 12:00N 59°33' E 022°56'816.1
2017-Sep-12 11:30N 59°36' E 023°11'815.8
2017-Sep-12 11:00N 59°38' E 023°26'815.4
2017-Sep-12 10:30N 59°40' E 023°41'815.1
2017-Sep-12 10:00N 59°42' E 023°55'815.5
2017-Sep-12 09:30N 59°45' E 024°10'715.0
2017-Sep-12 09:01N 59°47' E 024°24'714.7
2017-Sep-12 08:30N 59°48' E 024°38'714.6
2017-Sep-12 08:01N 59°50' E 024°52'4616.2
2017-Sep-12 05:10N 60°00' E 026°22'316.3
2017-Sep-12 05:00N 60°01' E 026°27'816.1
2017-Sep-12 04:30N 60°01' E 026°43'916.5
2017-Sep-12 03:59N 59°60' E 027°00'915.9
2017-Sep-12 03:24N 60°04' E 027°17'616.5
2017-Sep-12 03:00N 60°07' E 027°28'816.2
2017-Sep-12 02:31N 60°11' E 027°42'815.2
2017-Sep-12 02:01N 60°11' E 027°57'816.5
2017-Sep-12 01:30N 60°09' E 028°13'815.9
2017-Sep-12 01:00N 60°04' E 028°27'816.0
2017-Sep-12 00:31N 60°03' E 028°43'816.3
2017-Sep-12 00:00N 60°03' E 028°59'816.3
2017-Sep-11 23:30N 60°02' E 029°15'713.5
2017-Sep-11 22:58N 60°02' E 029°30'612.3
2017-Sep-11 22:30N 59°60' E 029°41'5 9.6
2017-Sep-11 22:00N 59°57' E 029°49'612.2
2017-Sep-11 21:30N 59°55' E 030°00'5 9.2
2017-Sep-11 21:00N 59°54' E 030°09'2 3.9
2017-Sep-11 20:28N 59°52' E 030°12'0 0.0
2017-Sep-11 19:58N 59°52' E 030°12'0 0.0
2017-Sep-11 19:28N 59°52' E 030°12'0 0.0
2017-Sep-11 18:58N 59°52' E 030°12'0 0.0
2017-Sep-11 18:28N 59°52' E 030°12'0 0.0
2017-Sep-11 17:58N 59°52' E 030°12'0 0.0
2017-Sep-11 17:25N 59°52' E 030°12'0 0.0
2017-Sep-11 16:52N 59°52' E 030°12'0 0.0
2017-Sep-11 16:28N 59°52' E 030°12'0 0.0
2017-Sep-11 15:58N 59°52' E 030°12'0 0.0
2017-Sep-11 15:28N 59°52' E 030°12'0 0.0
2017-Sep-11 14:58N 59°52' E 030°12'0 0.0
2017-Sep-11 14:28N 59°52' E 030°12'  
Track history (hours):
 
Tides and Currents Weather Stations Pressure Air Temp Water Temp Dewpoint Dewpoint Depression Visibility Wind Speed Wind Dir Waves Ship Positions

Fesco Vladimir

Last reported at 2017-Sep-21 14:00 UTC. Time now 2017-Sep-21 14:06 UTC.
Position N 59°40' E 028°24'.

Length 184 m; draft 8.8 m.

Type: Ship (hazmat cat A). MMSI: 209777000.

Date/timePositionNaut miles runAvg speedWind from/ knotsBaromVisibWave heightAir tempDewpointWater temp
2017-Sep-21 14:00N 59°40' E 028°24'0 0.0
2017-Sep-21 13:30N 59°40' E 028°24'0 0.0
2017-Sep-21 13:00N 59°40' E 028°24'0 0.0
2017-Sep-21 12:30N 59°40' E 028°24'0 0.0
2017-Sep-21 12:00N 59°40' E 028°24'0 0.0
2017-Sep-21 11:30N 59°40' E 028°24'0 0.0
2017-Sep-21 11:00N 59°40' E 028°24'0 0.0
2017-Sep-21 10:30N 59°40' E 028°24'0 0.0
2017-Sep-21 10:00N 59°40' E 028°24'0 0.0
2017-Sep-21 09:30N 59°40' E 028°24'0 0.0
2017-Sep-21 09:00N 59°40' E 028°24'0 0.0
2017-Sep-21 08:30N 59°40' E 028°24'0 0.3
2017-Sep-21 08:00N 59°41' E 028°24'2 5.0
2017-Sep-21 07:30N 59°43' E 028°23'4 8.9
2017-Sep-21 07:00N 59°47' E 028°25'3 6.0
2017-Sep-21 06:31N 59°50' E 028°26'714.8
2017-Sep-21 06:00N 59°57' E 028°34'4 7.8
2017-Sep-21 05:30N 60°00' E 028°35'3 6.1
2017-Sep-21 05:00N 60°02' E 028°31'611.7
2017-Sep-21 04:30N 60°05' E 028°20'611.7
2017-Sep-21 04:00N 60°08' E 028°10'612.2
2017-Sep-21 03:30N 60°09' E 027°58'611.9
2017-Sep-21 03:00N 60°11' E 027°46'612.6
2017-Sep-21 02:30N 60°07' E 027°35'612.5
2017-Sep-21 02:00N 60°04' E 027°25'612.5
2017-Sep-21 01:30N 60°01' E 027°14'612.5
2017-Sep-21 01:00N 59°58' E 027°03'612.3
2017-Sep-21 00:30N 59°59' E 026°51'612.2
2017-Sep-21 00:00N 59°59' E 026°39'612.7
2017-Sep-20 23:30N 59°58' E 026°26'612.8
2017-Sep-20 23:00N 59°56' E 026°14'3812.7
2017-Sep-20 19:59N 59°47' E 024°60'612.6
2017-Sep-20 19:30N 59°45' E 024°48'612.5
2017-Sep-20 19:00N 59°44' E 024°36'612.3
2017-Sep-20 18:30N 59°43' E 024°24'1212.5
2017-Sep-20 17:35N 59°39' E 024°02'116.0
2017-Sep-20 17:30N 59°39' E 024°00'815.9
2017-Sep-20 17:00N 59°36' E 023°45'1216.3
2017-Sep-20 16:15N 59°33' E 023°22'416.6
2017-Sep-20 16:00N 59°31' E 023°15'27016.0
2017-Sep-19 23:11N 56°18' E 017°20'2516.5
2017-Sep-19 21:40N 56°03' E 016°44'316.3
2017-Sep-19 21:30N 56°01' E 016°40'816.3
2017-Sep-19 21:00N 55°57' E 016°28'816.3
2017-Sep-19 20:30N 55°53' E 016°15'816.5
2017-Sep-19 20:00N 55°49' E 016°02'816.3
2017-Sep-19 19:30N 55°45' E 015°49'816.4
2017-Sep-19 19:00N 55°42' E 015°36'816.4
2017-Sep-19 18:30N 55°37' E 015°24'816.4
2017-Sep-19 18:00N 55°34' E 015°11'816.4
2017-Sep-19 17:30N 55°30' E 014°58'816.3
2017-Sep-19 17:00N 55°26' E 014°46'815.9
2017-Sep-19 16:30N 55°21' E 014°35'816.3
2017-Sep-19 16:00N 55°14' E 014°26'816.3
2017-Sep-19 15:30N 55°08' E 014°17'816.2
2017-Sep-19 15:00N 55°01' E 014°09'916.2
2017-Sep-19 14:28N 54°58' E 013°54'916.7
2017-Sep-19 13:57N 54°56' E 013°40'2316.5
2017-Sep-19 12:32N 54°49' E 013°02'016.7
2017-Sep-19 12:30N 54°48' E 013°01'2416.1
2017-Sep-19 11:02N 54°38' E 012°24'016.3
2017-Sep-19 11:00N 54°38' E 012°23'815.0
2017-Sep-19 10:30N 54°32' E 012°15'2013.5
2017-Sep-19 09:03N 54°26' E 011°43'116.2
2017-Sep-19 08:58N 54°26' E 011°41'816.3
2017-Sep-19 08:30N 54°29' E 011°30'816.0
2017-Sep-19 08:00N 54°33' E 011°17'815.4
2017-Sep-19 07:30N 54°35' E 011°05'815.8
2017-Sep-19 07:00N 54°35' E 010°51'816.4
2017-Sep-19 06:30N 54°34' E 010°37'816.2
2017-Sep-19 06:00N 54°31' E 010°24'713.3
2017-Sep-19 05:29N 54°27' E 010°15'611.6
2017-Sep-19 04:59N 54°22' E 010°09'22 4.2
2017-Sep-18 23:39N 54°13' E 009°35'3 6.6
2017-Sep-18 23:16N 54°11' E 009°31'2 6.6
2017-Sep-18 22:56N 54°11' E 009°27'3 6.6
2017-Sep-18 22:28N 54°09' E 009°23'4 6.2
2017-Sep-18 21:49N 54°06' E 009°20'2 6.6
2017-Sep-18 21:30N 54°04' E 009°19'3 6.6
2017-Sep-18 21:00N 54°00' E 009°18'3 6.6
2017-Sep-18 20:31N 53°58' E 009°15'3 5.0
2017-Sep-18 20:00N 53°56' E 009°12'2 4.4
2017-Sep-18 19:30N 53°54' E 009°10'1 1.4
2017-Sep-18 19:00N 53°54' E 009°09'0 0.0
2017-Sep-18 18:30N 53°54' E 009°09'1 2.9
2017-Sep-18 18:00N 53°53' E 009°07'0 0.0
2017-Sep-18 17:30N 53°53' E 009°07'0 0.2
2017-Sep-18 17:00N 53°53' E 009°06'1 1.7
2017-Sep-18 16:30N 53°53' E 009°08'5 9.3
2017-Sep-18 16:00N 53°52' E 009°16'612.8
2017-Sep-18 15:30N 53°48' E 009°23'817.0
2017-Sep-18 15:00N 53°41' E 009°30'713.4
2017-Sep-18 14:30N 53°35' E 009°37'611.1
2017-Sep-18 14:00N 53°34' E 009°46'5 9.4
2017-Sep-18 13:30N 53°33' E 009°54'1 2.4
2017-Sep-18 13:00N 53°32' E 009°55'0 0.0
2017-Sep-18 12:30N 53°32' E 009°55'0 0.0
2017-Sep-18 12:00N 53°32' E 009°55'0 0.0
2017-Sep-18 11:30N 53°32' E 009°55'0 0.0
2017-Sep-18 11:00N 53°32' E 009°55'0 0.0
2017-Sep-18 10:30N 53°32' E 009°55'0 0.0
2017-Sep-18 10:00N 53°32' E 009°55'0 0.0
2017-Sep-18 09:30N 53°32' E 009°55'0 0.0
2017-Sep-18 09:00N 53°32' E 009°55'0 0.0
2017-Sep-18 08:30N 53°32' E 009°55'0 0.0
2017-Sep-18 08:00N 53°32' E 009°55'0 0.0
2017-Sep-18 07:30N 53°32' E 009°55'0 0.0
2017-Sep-18 07:00N 53°32' E 009°55'0 0.0
2017-Sep-18 06:30N 53°32' E 009°55'0 0.0
2017-Sep-18 05:57N 53°32' E 009°55'0 0.0
2017-Sep-18 05:30N 53°32' E 009°55'0 0.0
2017-Sep-18 05:00N 53°32' E 009°55'0 0.0
2017-Sep-18 04:30N 53°32' E 009°55'0 0.0
2017-Sep-18 03:57N 53°32' E 009°55'0 0.0
2017-Sep-18 03:30N 53°32' E 009°55'0 0.0
2017-Sep-18 03:00N 53°32' E 009°55'0 0.0
2017-Sep-18 02:27N 53°32' E 009°55'0 0.0
2017-Sep-18 01:57N 53°32' E 009°55'0 0.0
2017-Sep-18 01:30N 53°32' E 009°55'0 0.0
2017-Sep-18 01:00N 53°32' E 009°55'0 0.0
2017-Sep-18 00:30N 53°32' E 009°55'0 0.0
2017-Sep-18 00:00N 53°32' E 009°55'0 0.0
2017-Sep-17 23:30N 53°32' E 009°55'0 0.0
2017-Sep-17 23:00N 53°32' E 009°55'0 0.0
2017-Sep-17 22:30N 53°32' E 009°55'0 0.0
2017-Sep-17 21:57N 53°32' E 009°55'0 0.0
2017-Sep-17 21:30N 53°32' E 009°55'0 0.0
2017-Sep-17 20:59N 53°32' E 009°55'0 0.0
2017-Sep-17 20:30N 53°32' E 009°55'0 0.0
2017-Sep-17 19:59N 53°32' E 009°55'0 0.0
2017-Sep-17 19:29N 53°32' E 009°55'0 0.0
2017-Sep-17 19:01N 53°32' E 009°55'0 0.0
2017-Sep-17 18:28N 53°32' E 009°55'0 0.0
2017-Sep-17 17:58N 53°32' E 009°55'0 0.0
2017-Sep-17 17:30N 53°32' E 009°55'0 0.0
2017-Sep-17 17:00N 53°32' E 009°55'0 0.0
2017-Sep-17 16:29N 53°32' E 009°55'0 0.0
2017-Sep-17 15:59N 53°32' E 009°55'0 0.0
2017-Sep-17 15:29N 53°32' E 009°55'0 0.0
2017-Sep-17 14:59N 53°32' E 009°55'0 0.0
2017-Sep-17 14:29N 53°32' E 009°55'0 0.0
2017-Sep-17 13:59N 53°32' E 009°55'0 0.0
2017-Sep-17 13:29N 53°32' E 009°55'0 0.0
2017-Sep-17 12:59N 53°32' E 009°55'0 0.0
2017-Sep-17 12:29N 53°32' E 009°55'0 0.0
2017-Sep-17 12:00N 53°32' E 009°55'0 0.0
2017-Sep-17 11:30N 53°32' E 009°55'0 0.0
2017-Sep-17 11:00N 53°32' E 009°55'0 0.0
2017-Sep-17 10:30N 53°32' E 009°55'0 0.0
2017-Sep-17 10:00N 53°32' E 009°55'0 0.0
2017-Sep-17 09:30N 53°32' E 009°55'0 0.0
2017-Sep-17 09:00N 53°32' E 009°55'0 0.0
2017-Sep-17 08:30N 53°32' E 009°55'0 0.0
2017-Sep-17 08:00N 53°32' E 009°55'0 0.0
2017-Sep-17 07:30N 53°32' E 009°55'0 0.0
2017-Sep-17 07:00N 53°32' E 009°55'0 0.0
2017-Sep-17 06:30N 53°32' E 009°55'0 0.0
2017-Sep-17 06:00N 53°32' E 009°55'0 0.0
2017-Sep-17 05:30N 53°32' E 009°55'0 0.0
2017-Sep-17 05:00N 53°32' E 009°55'0 0.0
2017-Sep-17 04:30N 53°32' E 009°55'1 1.9
2017-Sep-17 04:01N 53°33' E 009°54'2 3.8
2017-Sep-17 03:30N 53°31' E 009°56'1 2.1
2017-Sep-17 02:59N 53°30' E 009°56'0 0.0
2017-Sep-17 02:29N 53°30' E 009°56'0 0.0
2017-Sep-17 01:59N 53°30' E 009°56'0 0.0
2017-Sep-17 01:29N 53°30' E 009°56'0 0.0
2017-Sep-17 00:59N 53°30' E 009°56'0 0.0
2017-Sep-17 00:29N 53°30' E 009°56'0 0.0
2017-Sep-16 23:59N 53°30' E 009°56'0 0.0
2017-Sep-16 23:29N 53°30' E 009°56'0 0.0
2017-Sep-16 22:59N 53°30' E 009°56'0 0.0
2017-Sep-16 22:29N 53°30' E 009°56'0 0.0
2017-Sep-16 21:59N 53°30' E 009°56'0 0.0
2017-Sep-16 21:29N 53°30' E 009°56'0 0.0
2017-Sep-16 20:59N 53°30' E 009°56'0 0.0
2017-Sep-16 20:26N 53°30' E 009°56'0 0.0
2017-Sep-16 19:59N 53°30' E 009°56'0 0.0
2017-Sep-16 19:29N 53°30' E 009°56'0 0.0
2017-Sep-16 18:59N 53°30' E 009°56'0 0.0
2017-Sep-16 18:29N 53°30' E 009°56'0 0.0
2017-Sep-16 18:00N 53°30' E 009°56'0 0.0
2017-Sep-16 17:31N 53°30' E 009°56'1 2.9
2017-Sep-16 17:00N 53°31' E 009°56'1 1.7
2017-Sep-16 16:30N 53°32' E 009°57'0 0.0
2017-Sep-16 15:58N 53°32' E 009°57'0 0.0
2017-Sep-16 15:28N 53°32' E 009°57'0 0.0
2017-Sep-16 14:58N 53°32' E 009°57'0 0.0
2017-Sep-16 14:28N 53°32' E 009°57'0 0.0
2017-Sep-16 13:58N 53°32' E 009°57'0 0.0
2017-Sep-16 13:28N 53°32' E 009°57'0 0.0
2017-Sep-16 12:58N 53°32' E 009°57'0 0.0
2017-Sep-16 12:28N 53°32' E 009°57'0 0.0
2017-Sep-16 11:58N 53°32' E 009°57'0 0.0
2017-Sep-16 11:30N 53°32' E 009°57'2 4.3
2017-Sep-16 11:00N 53°32' E 009°53'5 9.5
2017-Sep-16 10:30N 53°34' E 009°46'713.2
2017-Sep-16 10:00N 53°36' E 009°35'713.9
2017-Sep-16 09:31N 53°42' E 009°29'816.6
2017-Sep-16 09:00N 53°49' E 009°22'816.5
2017-Sep-16 08:30N 53°53' E 009°09'713.7
2017-Sep-16 08:00N 53°51' E 008°58'816.6
2017-Sep-16 07:31N 53°52' E 008°44'816.5
2017-Sep-16 07:00N 53°58' E 008°34'917.3
2017-Sep-16 06:30N 53°59' E 008°20'813.3
2017-Sep-16 05:54N 53°59' E 008°06'4 0.3
2017-Sep-15 18:09N 54°03' E 008°08'0 0.9
2017-Sep-15 17:42N 54°02' E 008°08'5 6.5
2017-Sep-15 16:57N 53°59' E 008°02'612.0
2017-Sep-15 16:29N 53°54' E 007°56'5 9.2
2017-Sep-15 15:55N 53°49' E 007°56'511.9
2017-Sep-15 15:28N 53°46' E 008°03'613.7
2017-Sep-15 15:00N 53°40' E 008°07'5 9.4
2017-Sep-15 14:30N 53°35' E 008°09'0 0.1
2017-Sep-15 13:59N 53°35' E 008°09'0 0.0
2017-Sep-15 13:29N 53°35' E 008°09'0 0.0
2017-Sep-15 12:59N 53°35' E 008°09'0 0.0
2017-Sep-15 12:29N 53°35' E 008°09'0 0.0
2017-Sep-15 11:53N 53°35' E 008°09'0 0.0
2017-Sep-15 11:26N 53°35' E 008°09'0 0.0
2017-Sep-15 10:59N 53°35' E 008°09'0 0.0
2017-Sep-15 10:29N 53°35' E 008°09'0 0.0
2017-Sep-15 09:59N 53°35' E 008°09'0 0.0
2017-Sep-15 09:29N 53°35' E 008°09'0 0.0
2017-Sep-15 08:59N 53°35' E 008°09'0 0.0
2017-Sep-15 08:29N 53°35' E 008°09'0 0.0
2017-Sep-15 07:59N 53°35' E 008°09'0 0.0
2017-Sep-15 07:26N 53°35' E 008°09'0 0.0
2017-Sep-15 06:59N 53°35' E 008°09'0 0.0
2017-Sep-15 06:29N 53°35' E 008°09'0 0.0
2017-Sep-15 05:59N 53°35' E 008°09'0 0.0
2017-Sep-15 05:29N 53°35' E 008°09'0 0.1
2017-Sep-15 05:00N 53°35' E 008°09'3 5.3
2017-Sep-15 04:30N 53°38' E 008°08'612.9
2017-Sep-15 04:00N 53°44' E 008°04'815.5
2017-Sep-15 03:30N 53°49' E 007°55'713.9
2017-Sep-15 03:00N 53°56' E 007°54'714.5
2017-Sep-15 02:30N 54°01' E 008°03'612.7
2017-Sep-15 02:00N 54°01' E 008°14'611.4
2017-Sep-15 01:30N 53°59' E 008°24'816.0
2017-Sep-15 01:00N 53°57' E 008°37'816.1
2017-Sep-15 00:31N 53°51' E 008°45'816.8
2017-Sep-15 00:01N 53°51' E 008°60'611.8
2017-Sep-14 23:30N 53°54' E 009°09'0 0.1
2017-Sep-14 23:00N 53°54' E 009°09'1 2.4
2017-Sep-14 22:31N 53°54' E 009°10'3 6.4
2017-Sep-14 22:01N 53°57' E 009°14'3 7.0
2017-Sep-14 21:30N 53°60' E 009°17'3 5.8
2017-Sep-14 21:00N 54°03' E 009°18'2 4.1
2017-Sep-14 20:31N 54°05' E 009°19'4 6.9
2017-Sep-14 19:59N 54°08' E 009°20'1 2.7
2017-Sep-14 19:30N 54°09' E 009°22'2 4.1
2017-Sep-14 18:57N 54°10' E 009°25'4 7.0
2017-Sep-14 18:25N 54°11' E 009°31'33 3.7
2017-Sep-14 09:28N 54°30' E 010°17'612.8
2017-Sep-14 09:00N 54°32' E 010°26'815.7
2017-Sep-14 08:30N 54°35' E 010°39'815.7
2017-Sep-14 08:00N 54°36' E 010°53'714.4
2017-Sep-14 07:30N 54°36' E 011°05'714.3
2017-Sep-14 07:00N 54°35' E 011°17'713.5
2017-Sep-14 06:30N 54°32' E 011°28'713.2
2017-Sep-14 06:01N 54°29' E 011°38'612.7
2017-Sep-14 05:30N 54°26' E 011°48'612.1
2017-Sep-14 05:00N 54°26' E 011°58'611.1
2017-Sep-14 04:30N 54°26' E 012°08'910.4
2017-Sep-14 03:40N 54°34' E 012°15'211.3
2017-Sep-14 03:29N 54°35' E 012°16'44 9.8
2017-Sep-13 22:59N 54°55' E 013°25'5 7.9
2017-Sep-13 22:20N 54°57' E 013°33'23 7.3
2017-Sep-13 19:06N 55°08' E 014°10'2 7.5
2017-Sep-13 18:50N 55°09' E 014°12'3 8.2
2017-Sep-13 18:30N 55°11' E 014°15'5 9.7
2017-Sep-13 18:00N 55°15' E 014°20'510.9
2017-Sep-13 17:30N 55°19' E 014°26'712.2
2017-Sep-13 16:57N 55°25' E 014°34'511.7
2017-Sep-13 16:30N 55°28' E 014°41'611.9
2017-Sep-13 16:00N 55°31' E 014°50'612.2
2017-Sep-13 15:30N 55°34' E 014°59'612.1
2017-Sep-13 15:00N 55°37' E 015°08'612.0
2017-Sep-13 14:30N 55°40' E 015°18'612.1
2017-Sep-13 14:00N 55°43' E 015°27'612.2
2017-Sep-13 13:30N 55°46' E 015°36'612.8
2017-Sep-13 13:00N 55°50' E 015°46'613.1
2017-Sep-13 12:31N 55°53' E 015°56'612.8
2017-Sep-13 12:00N 55°57' E 016°05'612.7
2017-Sep-13 11:30N 55°60' E 016°15'612.8
2017-Sep-13 11:00N 56°03' E 016°25'612.0
2017-Sep-13 10:30N 56°06' E 016°34'612.1
2017-Sep-13 10:00N 56°10' E 016°43'612.2
2017-Sep-13 09:30N 56°14' E 016°52'612.3
2017-Sep-13 09:00N 56°17' E 017°00'25412.9
2017-Sep-12 13:15N 59°25' E 022°22'415.4
2017-Sep-12 13:00N 59°28' E 022°28'815.2
2017-Sep-12 12:30N 59°31' E 022°41'815.7
2017-Sep-12 12:00N 59°33' E 022°56'816.1
2017-Sep-12 11:30N 59°36' E 023°11'815.8
2017-Sep-12 11:00N 59°38' E 023°26'815.4
2017-Sep-12 10:30N 59°40' E 023°41'815.1
2017-Sep-12 10:00N 59°42' E 023°55'815.5
2017-Sep-12 09:30N 59°45' E 024°10'715.0
2017-Sep-12 09:01N 59°47' E 024°24'714.7
2017-Sep-12 08:30N 59°48' E 024°38'714.6
2017-Sep-12 08:01N 59°50' E 024°52'4616.2
2017-Sep-12 05:10N 60°00' E 026°22'316.3
2017-Sep-12 05:00N 60°01' E 026°27'816.1
2017-Sep-12 04:30N 60°01' E 026°43'916.5
2017-Sep-12 03:59N 59°60' E 027°00'915.9
2017-Sep-12 03:24N 60°04' E 027°17'616.5
2017-Sep-12 03:00N 60°07' E 027°28'816.2
2017-Sep-12 02:31N 60°11' E 027°42'815.2
2017-Sep-12 02:01N 60°11' E 027°57'816.5
2017-Sep-12 01:30N 60°09' E 028°13'815.9
2017-Sep-12 01:00N 60°04' E 028°27'816.0
2017-Sep-12 00:31N 60°03' E 028°43'816.3
2017-Sep-12 00:00N 60°03' E 028°59'816.3
2017-Sep-11 23:30N 60°02' E 029°15'713.5
2017-Sep-11 22:58N 60°02' E 029°30'612.3
2017-Sep-11 22:30N 59°60' E 029°41'5 9.6
2017-Sep-11 22:00N 59°57' E 029°49'612.2
2017-Sep-11 21:30N 59°55' E 030°00'5 9.2
2017-Sep-11 21:00N 59°54' E 030°09'2 3.9
2017-Sep-11 20:28N 59°52' E 030°12'0 0.0
2017-Sep-11 19:58N 59°52' E 030°12'0 0.0
2017-Sep-11 19:28N 59°52' E 030°12'0 0.0
2017-Sep-11 18:58N 59°52' E 030°12'0 0.0
2017-Sep-11 18:28N 59°52' E 030°12'0 0.0
2017-Sep-11 17:58N 59°52' E 030°12'0 0.0
2017-Sep-11 17:25N 59°52' E 030°12'0 0.0
2017-Sep-11 16:52N 59°52' E 030°12'0 0.0
2017-Sep-11 16:28N 59°52' E 030°12'0 0.0
2017-Sep-11 15:58N 59°52' E 030°12'0 0.0
2017-Sep-11 15:28N 59°52' E 030°12'0 0.0
2017-Sep-11 14:58N 59°52' E 030°12'0 0.0
2017-Sep-11 14:28N 59°52' E 030°12'  

Dump ship's entire track history